sensor_id;sensor_type;location;lat;lon;timestamp;P1;durP1;ratioP1;P2;durP2;ratioP2
27265;SDS011;14766;51.380;13.762;2024-03-06T00:00:31;26.38;;;14.05;;
27265;SDS011;14766;51.380;13.762;2024-03-06T00:02:59;22.15;;;14.52;;
27265;SDS011;14766;51.380;13.762;2024-03-06T00:05:26;22.00;;;14.23;;
27265;SDS011;14766;51.380;13.762;2024-03-06T00:07:54;23.52;;;14.70;;
27265;SDS011;14766;51.380;13.762;2024-03-06T00:10:21;26.80;;;15.95;;
27265;SDS011;14766;51.380;13.762;2024-03-06T00:12:48;21.88;;;14.20;;
27265;SDS011;14766;51.380;13.762;2024-03-06T00:15:15;21.83;;;13.38;;
27265;SDS011;14766;51.380;13.762;2024-03-06T00:17:43;26.67;;;14.82;;
27265;SDS011;14766;51.380;13.762;2024-03-06T00:20:10;25.95;;;14.60;;
27265;SDS011;14766;51.380;13.762;2024-03-06T00:22:38;25.08;;;15.50;;
27265;SDS011;14766;51.380;13.762;2024-03-06T00:25:05;25.25;;;13.85;;
27265;SDS011;14766;51.380;13.762;2024-03-06T00:27:33;22.63;;;14.35;;
27265;SDS011;14766;51.380;13.762;2024-03-06T00:30:00;27.13;;;14.77;;
27265;SDS011;14766;51.380;13.762;2024-03-06T00:32:28;24.13;;;15.50;;
27265;SDS011;14766;51.380;13.762;2024-03-06T00:34:55;21.35;;;14.27;;
27265;SDS011;14766;51.380;13.762;2024-03-06T00:37:22;26.10;;;15.98;;
27265;SDS011;14766;51.380;13.762;2024-03-06T00:39:49;26.73;;;15.00;;
27265;SDS011;14766;51.380;13.762;2024-03-06T00:42:16;24.90;;;15.20;;
27265;SDS011;14766;51.380;13.762;2024-03-06T00:44:43;27.35;;;15.23;;
27265;SDS011;14766;51.380;13.762;2024-03-06T00:47:10;26.45;;;15.75;;
27265;SDS011;14766;51.380;13.762;2024-03-06T00:49:38;27.77;;;15.23;;
27265;SDS011;14766;51.380;13.762;2024-03-06T00:52:05;23.08;;;13.82;;
27265;SDS011;14766;51.380;13.762;2024-03-06T00:54:32;23.83;;;15.25;;
27265;SDS011;14766;51.380;13.762;2024-03-06T00:56:59;27.48;;;16.17;;
27265;SDS011;14766;51.380;13.762;2024-03-06T00:59:28;25.52;;;15.32;;
27265;SDS011;14766;51.380;13.762;2024-03-06T01:01:55;22.33;;;14.95;;
27265;SDS011;14766;51.380;13.762;2024-03-06T01:04:24;23.98;;;14.65;;
27265;SDS011;14766;51.380;13.762;2024-03-06T01:06:52;25.80;;;14.95;;
27265;SDS011;14766;51.380;13.762;2024-03-06T01:09:20;25.85;;;15.05;;
27265;SDS011;14766;51.380;13.762;2024-03-06T01:11:47;23.38;;;14.98;;
27265;SDS011;14766;51.380;13.762;2024-03-06T01:14:16;24.77;;;14.77;;
27265;SDS011;14766;51.380;13.762;2024-03-06T01:16:43;25.55;;;15.70;;
27265;SDS011;14766;51.380;13.762;2024-03-06T01:19:10;26.52;;;15.65;;
27265;SDS011;14766;51.380;13.762;2024-03-06T01:21:38;25.73;;;15.48;;
27265;SDS011;14766;51.380;13.762;2024-03-06T01:24:05;28.85;;;16.17;;
27265;SDS011;14766;51.380;13.762;2024-03-06T01:26:33;24.95;;;15.05;;
27265;SDS011;14766;51.380;13.762;2024-03-06T01:29:01;25.45;;;15.43;;
27265;SDS011;14766;51.380;13.762;2024-03-06T01:31:28;21.88;;;15.77;;
27265;SDS011;14766;51.380;13.762;2024-03-06T01:33:58;23.02;;;15.25;;
27265;SDS011;14766;51.380;13.762;2024-03-06T01:36:25;26.02;;;14.77;;
27265;SDS011;14766;51.380;13.762;2024-03-06T01:38:52;24.63;;;14.68;;
27265;SDS011;14766;51.380;13.762;2024-03-06T01:41:19;25.95;;;15.23;;
27265;SDS011;14766;51.380;13.762;2024-03-06T01:43:46;26.25;;;16.17;;
27265;SDS011;14766;51.380;13.762;2024-03-06T01:46:13;28.63;;;15.70;;
27265;SDS011;14766;51.380;13.762;2024-03-06T01:48:40;24.55;;;14.75;;
27265;SDS011;14766;51.380;13.762;2024-03-06T01:51:09;25.60;;;15.35;;
27265;SDS011;14766;51.380;13.762;2024-03-06T01:53:36;24.65;;;15.90;;
27265;SDS011;14766;51.380;13.762;2024-03-06T01:56:06;24.77;;;14.90;;
27265;SDS011;14766;51.380;13.762;2024-03-06T01:58:38;25.48;;;15.00;;
27265;SDS011;14766;51.380;13.762;2024-03-06T02:01:06;27.25;;;16.45;;
27265;SDS011;14766;51.380;13.762;2024-03-06T02:03:34;25.15;;;15.30;;
27265;SDS011;14766;51.380;13.762;2024-03-06T02:06:02;23.83;;;14.60;;
27265;SDS011;14766;51.380;13.762;2024-03-06T02:08:29;25.20;;;15.25;;
27265;SDS011;14766;51.380;13.762;2024-03-06T02:10:57;26.52;;;15.85;;
27265;SDS011;14766;51.380;13.762;2024-03-06T02:13:26;25.45;;;16.25;;
27265;SDS011;14766;51.380;13.762;2024-03-06T02:15:54;29.02;;;17.10;;
27265;SDS011;14766;51.380;13.762;2024-03-06T02:18:21;31.80;;;17.80;;
27265;SDS011;14766;51.380;13.762;2024-03-06T02:20:49;30.73;;;17.33;;
27265;SDS011;14766;51.380;13.762;2024-03-06T02:23:17;29.40;;;17.35;;
27265;SDS011;14766;51.380;13.762;2024-03-06T02:25:48;29.08;;;18.33;;
27265;SDS011;14766;51.380;13.762;2024-03-06T02:28:16;32.53;;;19.48;;
27265;SDS011;14766;51.380;13.762;2024-03-06T02:30:44;29.50;;;18.05;;
27265;SDS011;14766;51.380;13.762;2024-03-06T02:33:11;26.35;;;16.13;;
27265;SDS011;14766;51.380;13.762;2024-03-06T02:35:38;32.05;;;18.63;;
27265;SDS011;14766;51.380;13.762;2024-03-06T02:38:06;34.08;;;19.80;;
27265;SDS011;14766;51.380;13.762;2024-03-06T02:40:34;35.33;;;18.80;;
27265;SDS011;14766;51.380;13.762;2024-03-06T02:43:02;32.78;;;18.95;;
27265;SDS011;14766;51.380;13.762;2024-03-06T02:45:31;30.70;;;18.35;;
27265;SDS011;14766;51.380;13.762;2024-03-06T02:47:58;32.80;;;19.05;;
27265;SDS011;14766;51.380;13.762;2024-03-06T02:50:25;33.05;;;18.02;;
27265;SDS011;14766;51.380;13.762;2024-03-06T02:52:52;30.98;;;18.55;;
27265;SDS011;14766;51.380;13.762;2024-03-06T02:55:20;35.78;;;18.95;;
27265;SDS011;14766;51.380;13.762;2024-03-06T02:57:52;32.15;;;18.20;;
27265;SDS011;14766;51.380;13.762;2024-03-06T03:00:19;33.08;;;20.38;;
27265;SDS011;14766;51.380;13.762;2024-03-06T03:02:46;27.85;;;17.52;;
27265;SDS011;14766;51.380;13.762;2024-03-06T03:05:13;30.52;;;18.65;;
27265;SDS011;14766;51.380;13.762;2024-03-06T03:07:40;29.48;;;17.80;;
27265;SDS011;14766;51.380;13.762;2024-03-06T03:10:08;31.30;;;18.13;;
27265;SDS011;14766;51.380;13.762;2024-03-06T03:12:38;30.42;;;17.48;;
27265;SDS011;14766;51.380;13.762;2024-03-06T03:15:05;29.88;;;16.98;;
27265;SDS011;14766;51.380;13.762;2024-03-06T03:17:33;31.10;;;18.13;;
27265;SDS011;14766;51.380;13.762;2024-03-06T03:20:00;30.75;;;18.08;;
27265;SDS011;14766;51.380;13.762;2024-03-06T03:22:37;31.38;;;17.23;;
27265;SDS011;14766;51.380;13.762;2024-03-06T03:25:08;29.52;;;17.35;;
27265;SDS011;14766;51.380;13.762;2024-03-06T03:27:37;30.48;;;17.40;;
27265;SDS011;14766;51.380;13.762;2024-03-06T03:30:05;31.20;;;18.63;;
27265;SDS011;14766;51.380;13.762;2024-03-06T03:32:35;29.83;;;17.48;;
27265;SDS011;14766;51.380;13.762;2024-03-06T03:35:04;29.38;;;18.00;;
27265;SDS011;14766;51.380;13.762;2024-03-06T03:37:32;29.98;;;17.83;;
27265;SDS011;14766;51.380;13.762;2024-03-06T03:39:59;34.80;;;19.20;;
27265;SDS011;14766;51.380;13.762;2024-03-06T03:42:26;31.60;;;17.80;;
27265;SDS011;14766;51.380;13.762;2024-03-06T03:44:53;27.25;;;17.73;;
27265;SDS011;14766;51.380;13.762;2024-03-06T03:47:21;32.53;;;17.98;;
27265;SDS011;14766;51.380;13.762;2024-03-06T03:49:48;29.42;;;17.38;;
27265;SDS011;14766;51.380;13.762;2024-03-06T03:52:32;30.80;;;18.90;;
27265;SDS011;14766;51.380;13.762;2024-03-06T03:55:02;31.10;;;17.90;;
27265;SDS011;14766;51.380;13.762;2024-03-06T03:57:30;32.15;;;18.40;;
27265;SDS011;14766;51.380;13.762;2024-03-06T03:59:57;29.70;;;17.10;;
27265;SDS011;14766;51.380;13.762;2024-03-06T04:02:25;29.13;;;17.27;;
27265;SDS011;14766;51.380;13.762;2024-03-06T04:04:53;34.63;;;18.00;;
27265;SDS011;14766;51.380;13.762;2024-03-06T04:07:20;31.98;;;17.83;;
27265;SDS011;14766;51.380;13.762;2024-03-06T04:09:47;28.45;;;17.60;;
27265;SDS011;14766;51.380;13.762;2024-03-06T04:12:14;28.50;;;16.92;;
27265;SDS011;14766;51.380;13.762;2024-03-06T04:14:41;33.88;;;18.70;;
27265;SDS011;14766;51.380;13.762;2024-03-06T04:17:08;30.35;;;16.88;;
27265;SDS011;14766;51.380;13.762;2024-03-06T04:19:35;29.95;;;17.27;;
27265;SDS011;14766;51.380;13.762;2024-03-06T04:22:03;30.05;;;17.52;;
27265;SDS011;14766;51.380;13.762;2024-03-06T04:24:30;30.35;;;17.67;;
27265;SDS011;14766;51.380;13.762;2024-03-06T04:26:57;29.38;;;17.23;;
27265;SDS011;14766;51.380;13.762;2024-03-06T04:29:24;30.05;;;16.23;;
27265;SDS011;14766;51.380;13.762;2024-03-06T04:31:51;27.75;;;17.10;;
27265;SDS011;14766;51.380;13.762;2024-03-06T04:34:18;30.33;;;17.33;;
27265;SDS011;14766;51.380;13.762;2024-03-06T04:36:46;27.88;;;17.65;;
27265;SDS011;14766;51.380;13.762;2024-03-06T04:39:13;30.70;;;16.55;;
27265;SDS011;14766;51.380;13.762;2024-03-06T04:41:41;28.55;;;16.92;;
27265;SDS011;14766;51.380;13.762;2024-03-06T04:44:08;29.75;;;16.75;;
27265;SDS011;14766;51.380;13.762;2024-03-06T04:46:35;29.55;;;17.60;;
27265;SDS011;14766;51.380;13.762;2024-03-06T04:49:03;28.80;;;17.33;;
27265;SDS011;14766;51.380;13.762;2024-03-06T04:51:31;27.95;;;16.75;;
27265;SDS011;14766;51.380;13.762;2024-03-06T04:53:58;29.27;;;17.05;;
27265;SDS011;14766;51.380;13.762;2024-03-06T04:56:26;25.88;;;16.83;;
27265;SDS011;14766;51.380;13.762;2024-03-06T04:58:55;27.67;;;16.92;;
27265;SDS011;14766;51.380;13.762;2024-03-06T05:01:22;32.35;;;18.33;;
27265;SDS011;14766;51.380;13.762;2024-03-06T05:03:49;32.00;;;17.75;;
27265;SDS011;14766;51.380;13.762;2024-03-06T05:06:34;30.58;;;17.67;;
27265;SDS011;14766;51.380;13.762;2024-03-06T05:09:18;31.67;;;16.20;;
27265;SDS011;14766;51.380;13.762;2024-03-06T05:12:03;31.08;;;17.83;;
27265;SDS011;14766;51.380;13.762;2024-03-06T05:14:49;27.50;;;16.83;;
27265;SDS011;14766;51.380;13.762;2024-03-06T05:17:34;27.20;;;16.65;;
27265;SDS011;14766;51.380;13.762;2024-03-06T05:20:19;29.42;;;16.60;;
27265;SDS011;14766;51.380;13.762;2024-03-06T05:23:04;28.58;;;17.05;;
27265;SDS011;14766;51.380;13.762;2024-03-06T05:25:50;27.58;;;17.30;;
27265;SDS011;14766;51.380;13.762;2024-03-06T05:28:34;32.58;;;17.23;;
27265;SDS011;14766;51.380;13.762;2024-03-06T05:31:20;29.98;;;16.90;;
27265;SDS011;14766;51.380;13.762;2024-03-06T05:34:04;29.40;;;16.67;;
27265;SDS011;14766;51.380;13.762;2024-03-06T05:36:49;29.17;;;16.45;;
27265;SDS011;14766;51.380;13.762;2024-03-06T05:39:34;29.77;;;17.17;;
27265;SDS011;14766;51.380;13.762;2024-03-06T05:42:19;25.67;;;16.02;;
27265;SDS011;14766;51.380;13.762;2024-03-06T05:45:04;30.40;;;16.88;;
27265;SDS011;14766;51.380;13.762;2024-03-06T05:47:54;30.02;;;17.17;;
27265;SDS011;14766;51.380;13.762;2024-03-06T05:50:38;28.50;;;16.73;;
27265;SDS011;14766;51.380;13.762;2024-03-06T05:53:22;28.65;;;17.45;;
27265;SDS011;14766;51.380;13.762;2024-03-06T05:56:07;28.92;;;16.75;;
27265;SDS011;14766;51.380;13.762;2024-03-06T05:58:52;30.73;;;17.40;;
27265;SDS011;14766;51.380;13.762;2024-03-06T06:01:21;30.42;;;17.42;;
27265;SDS011;14766;51.380;13.762;2024-03-06T06:03:48;29.52;;;17.75;;
27265;SDS011;14766;51.380;13.762;2024-03-06T06:06:16;34.88;;;17.10;;
27265;SDS011;14766;51.380;13.762;2024-03-06T06:08:45;28.40;;;16.63;;
27265;SDS011;14766;51.380;13.762;2024-03-06T06:11:12;25.98;;;16.08;;
27265;SDS011;14766;51.380;13.762;2024-03-06T06:13:40;28.48;;;16.80;;
27265;SDS011;14766;51.380;13.762;2024-03-06T06:16:07;30.33;;;16.20;;
27265;SDS011;14766;51.380;13.762;2024-03-06T06:18:34;28.67;;;16.55;;
27265;SDS011;14766;51.380;13.762;2024-03-06T06:21:02;29.73;;;16.33;;
27265;SDS011;14766;51.380;13.762;2024-03-06T06:23:34;28.67;;;16.25;;
27265;SDS011;14766;51.380;13.762;2024-03-06T06:26:01;28.48;;;16.58;;
27265;SDS011;14766;51.380;13.762;2024-03-06T06:28:28;27.67;;;16.85;;
27265;SDS011;14766;51.380;13.762;2024-03-06T06:30:56;26.77;;;16.83;;
27265;SDS011;14766;51.380;13.762;2024-03-06T06:33:24;29.55;;;17.40;;
27265;SDS011;14766;51.380;13.762;2024-03-06T06:35:52;31.92;;;17.42;;
27265;SDS011;14766;51.380;13.762;2024-03-06T06:38:20;35.95;;;18.80;;
27265;SDS011;14766;51.380;13.762;2024-03-06T06:40:48;34.90;;;18.92;;
27265;SDS011;14766;51.380;13.762;2024-03-06T06:43:15;27.83;;;18.73;;
27265;SDS011;14766;51.380;13.762;2024-03-06T06:45:42;33.88;;;18.60;;
27265;SDS011;14766;51.380;13.762;2024-03-06T06:48:09;33.83;;;19.67;;
27265;SDS011;14766;51.380;13.762;2024-03-06T06:50:36;37.45;;;21.92;;
27265;SDS011;14766;51.380;13.762;2024-03-06T06:53:03;36.67;;;21.50;;
27265;SDS011;14766;51.380;13.762;2024-03-06T06:55:31;35.42;;;19.60;;
27265;SDS011;14766;51.380;13.762;2024-03-06T06:57:58;34.53;;;19.80;;
27265;SDS011;14766;51.380;13.762;2024-03-06T07:00:25;33.67;;;20.85;;
27265;SDS011;14766;51.380;13.762;2024-03-06T07:02:52;33.13;;;20.52;;
27265;SDS011;14766;51.380;13.762;2024-03-06T07:05:19;34.13;;;19.85;;
27265;SDS011;14766;51.380;13.762;2024-03-06T07:07:47;35.25;;;21.55;;
27265;SDS011;14766;51.380;13.762;2024-03-06T07:10:19;30.75;;;18.20;;
27265;SDS011;14766;51.380;13.762;2024-03-06T07:12:46;30.33;;;18.63;;
27265;SDS011;14766;51.380;13.762;2024-03-06T07:15:13;31.95;;;18.98;;
27265;SDS011;14766;51.380;13.762;2024-03-06T07:17:40;35.13;;;19.52;;
27265;SDS011;14766;51.380;13.762;2024-03-06T07:20:08;34.17;;;20.08;;
27265;SDS011;14766;51.380;13.762;2024-03-06T07:22:36;32.55;;;19.60;;
27265;SDS011;14766;51.380;13.762;2024-03-06T07:25:04;36.67;;;20.13;;
27265;SDS011;14766;51.380;13.762;2024-03-06T07:27:32;31.08;;;19.10;;
27265;SDS011;14766;51.380;13.762;2024-03-06T07:29:59;28.83;;;18.13;;
27265;SDS011;14766;51.380;13.762;2024-03-06T07:32:26;33.30;;;20.73;;
27265;SDS011;14766;51.380;13.762;2024-03-06T07:34:53;31.42;;;19.77;;
27265;SDS011;14766;51.380;13.762;2024-03-06T07:37:20;31.95;;;19.40;;
27265;SDS011;14766;51.380;13.762;2024-03-06T07:39:48;33.60;;;19.95;;
27265;SDS011;14766;51.380;13.762;2024-03-06T07:42:19;38.58;;;21.92;;
27265;SDS011;14766;51.380;13.762;2024-03-06T07:44:46;39.45;;;22.30;;
27265;SDS011;14766;51.380;13.762;2024-03-06T07:47:13;36.13;;;22.65;;
27265;SDS011;14766;51.380;13.762;2024-03-06T07:49:41;39.38;;;20.58;;
27265;SDS011;14766;51.380;13.762;2024-03-06T07:52:08;38.58;;;21.92;;
27265;SDS011;14766;51.380;13.762;2024-03-06T07:54:35;37.15;;;22.58;;
27265;SDS011;14766;51.380;13.762;2024-03-06T07:57:02;38.55;;;22.63;;
27265;SDS011;14766;51.380;13.762;2024-03-06T07:59:30;45.22;;;25.00;;
27265;SDS011;14766;51.380;13.762;2024-03-06T08:01:57;46.80;;;24.50;;
27265;SDS011;14766;51.380;13.762;2024-03-06T08:04:24;42.67;;;23.85;;
27265;SDS011;14766;51.380;13.762;2024-03-06T08:06:53;45.22;;;26.02;;
27265;SDS011;14766;51.380;13.762;2024-03-06T08:09:20;46.83;;;25.05;;
27265;SDS011;14766;51.380;13.762;2024-03-06T08:11:47;44.30;;;23.88;;
27265;SDS011;14766;51.380;13.762;2024-03-06T08:14:15;46.22;;;26.45;;
27265;SDS011;14766;51.380;13.762;2024-03-06T08:16:44;44.30;;;25.50;;
27265;SDS011;14766;51.380;13.762;2024-03-06T08:19:11;48.53;;;28.27;;
27265;SDS011;14766;51.380;13.762;2024-03-06T08:21:38;46.78;;;28.13;;
27265;SDS011;14766;51.380;13.762;2024-03-06T08:24:06;54.35;;;32.15;;
27265;SDS011;14766;51.380;13.762;2024-03-06T08:26:33;42.60;;;26.05;;
27265;SDS011;14766;51.380;13.762;2024-03-06T08:29:00;52.65;;;29.98;;
27265;SDS011;14766;51.380;13.762;2024-03-06T08:31:27;53.05;;;29.80;;
27265;SDS011;14766;51.380;13.762;2024-03-06T08:33:55;46.88;;;28.60;;
27265;SDS011;14766;51.380;13.762;2024-03-06T08:36:22;58.08;;;31.38;;
27265;SDS011;14766;51.380;13.762;2024-03-06T08:38:50;49.33;;;28.75;;
27265;SDS011;14766;51.380;13.762;2024-03-06T08:41:18;57.72;;;32.15;;
27265;SDS011;14766;51.380;13.762;2024-03-06T08:43:46;47.67;;;27.67;;
27265;SDS011;14766;51.380;13.762;2024-03-06T08:46:13;59.25;;;32.78;;
27265;SDS011;14766;51.380;13.762;2024-03-06T08:48:41;49.35;;;28.30;;
27265;SDS011;14766;51.380;13.762;2024-03-06T08:51:08;45.38;;;27.55;;
27265;SDS011;14766;51.380;13.762;2024-03-06T08:53:37;44.45;;;27.45;;
27265;SDS011;14766;51.380;13.762;2024-03-06T08:56:05;42.50;;;26.92;;
27265;SDS011;14766;51.380;13.762;2024-03-06T08:58:33;37.22;;;24.30;;
27265;SDS011;14766;51.380;13.762;2024-03-06T09:01:00;38.03;;;24.83;;
27265;SDS011;14766;51.380;13.762;2024-03-06T09:03:28;38.80;;;25.85;;
27265;SDS011;14766;51.380;13.762;2024-03-06T09:05:55;36.85;;;25.85;;
27265;SDS011;14766;51.380;13.762;2024-03-06T09:08:26;36.30;;;24.48;;
27265;SDS011;14766;51.380;13.762;2024-03-06T09:10:53;35.72;;;25.00;;
27265;SDS011;14766;51.380;13.762;2024-03-06T09:13:23;35.08;;;25.73;;
27265;SDS011;14766;51.380;13.762;2024-03-06T09:15:50;34.75;;;24.08;;
27265;SDS011;14766;51.380;13.762;2024-03-06T09:18:17;32.05;;;23.60;;
27265;SDS011;14766;51.380;13.762;2024-03-06T09:20:44;32.20;;;23.92;;
27265;SDS011;14766;51.380;13.762;2024-03-06T09:23:12;31.38;;;22.65;;
27265;SDS011;14766;51.380;13.762;2024-03-06T09:25:41;30.02;;;23.00;;
27265;SDS011;14766;51.380;13.762;2024-03-06T09:28:09;29.23;;;22.38;;
27265;SDS011;14766;51.380;13.762;2024-03-06T09:30:36;30.15;;;23.05;;
27265;SDS011;14766;51.380;13.762;2024-03-06T09:33:03;33.53;;;23.45;;
27265;SDS011;14766;51.380;13.762;2024-03-06T09:35:31;32.95;;;23.63;;
27265;SDS011;14766;51.380;13.762;2024-03-06T09:37:59;32.22;;;23.48;;
27265;SDS011;14766;51.380;13.762;2024-03-06T09:40:28;30.13;;;22.08;;
27265;SDS011;14766;51.380;13.762;2024-03-06T09:42:56;31.83;;;22.85;;
27265;SDS011;14766;51.380;13.762;2024-03-06T09:45:25;28.95;;;22.00;;
27265;SDS011;14766;51.380;13.762;2024-03-06T09:47:52;31.90;;;22.85;;
27265;SDS011;14766;51.380;13.762;2024-03-06T09:50:23;27.23;;;21.10;;
27265;SDS011;14766;51.380;13.762;2024-03-06T09:52:53;28.38;;;21.60;;
27265;SDS011;14766;51.380;13.762;2024-03-06T09:55:22;28.55;;;21.33;;
27265;SDS011;14766;51.380;13.762;2024-03-06T09:57:49;27.67;;;21.05;;
27265;SDS011;14766;51.380;13.762;2024-03-06T10:00:17;28.02;;;21.30;;
27265;SDS011;14766;51.380;13.762;2024-03-06T10:02:59;27.52;;;20.65;;
27265;SDS011;14766;51.380;13.762;2024-03-06T10:05:31;25.67;;;20.23;;
27265;SDS011;14766;51.380;13.762;2024-03-06T10:08:01;26.17;;;20.13;;
27265;SDS011;14766;51.380;13.762;2024-03-06T10:10:28;25.73;;;19.80;;
27265;SDS011;14766;51.380;13.762;2024-03-06T10:12:55;25.38;;;20.45;;
27265;SDS011;14766;51.380;13.762;2024-03-06T10:15:28;25.27;;;19.00;;
27265;SDS011;14766;51.380;13.762;2024-03-06T10:20:42;24.10;;;18.95;;
27265;SDS011;14766;51.380;13.762;2024-03-06T10:23:10;24.17;;;19.15;;
27265;SDS011;14766;51.380;13.762;2024-03-06T10:25:37;28.58;;;21.05;;
27265;SDS011;14766;51.380;13.762;2024-03-06T10:28:08;31.17;;;21.90;;
27265;SDS011;14766;51.380;13.762;2024-03-06T10:30:37;30.17;;;20.55;;
27265;SDS011;14766;51.380;13.762;2024-03-06T10:33:09;30.13;;;20.48;;
27265;SDS011;14766;51.380;13.762;2024-03-06T10:35:37;36.35;;;21.92;;
27265;SDS011;14766;51.380;13.762;2024-03-06T10:38:07;30.48;;;20.35;;
27265;SDS011;14766;51.380;13.762;2024-03-06T10:40:36;31.60;;;20.73;;
27265;SDS011;14766;51.380;13.762;2024-03-06T10:43:05;26.67;;;19.80;;
27265;SDS011;14766;51.380;13.762;2024-03-06T10:45:40;23.70;;;18.02;;
27265;SDS011;14766;51.380;13.762;2024-03-06T10:48:10;23.55;;;18.33;;
27265;SDS011;14766;51.380;13.762;2024-03-06T10:50:40;23.33;;;17.98;;
27265;SDS011;14766;51.380;13.762;2024-03-06T10:53:11;20.60;;;16.58;;
27265;SDS011;14766;51.380;13.762;2024-03-06T10:55:50;20.88;;;16.48;;
27265;SDS011;14766;51.380;13.762;2024-03-06T10:58:19;21.95;;;17.05;;
27265;SDS011;14766;51.380;13.762;2024-03-06T11:00:47;19.85;;;15.52;;
27265;SDS011;14766;51.380;13.762;2024-03-06T11:03:15;22.10;;;16.55;;
27265;SDS011;14766;51.380;13.762;2024-03-06T11:05:43;20.35;;;14.95;;
27265;SDS011;14766;51.380;13.762;2024-03-06T11:08:14;22.83;;;16.55;;
27265;SDS011;14766;51.380;13.762;2024-03-06T11:10:43;21.88;;;16.73;;
27265;SDS011;14766;51.380;13.762;2024-03-06T11:15:44;21.02;;;15.90;;
27265;SDS011;14766;51.380;13.762;2024-03-06T11:18:58;20.63;;;15.50;;
27265;SDS011;14766;51.380;13.762;2024-03-06T11:23:31;20.15;;;14.82;;
27265;SDS011;14766;51.380;13.762;2024-03-06T11:26:00;20.30;;;15.63;;
27265;SDS011;14766;51.380;13.762;2024-03-06T11:28:32;21.23;;;16.30;;
27265;SDS011;14766;51.380;13.762;2024-03-06T11:31:05;21.40;;;16.13;;
27265;SDS011;14766;51.380;13.762;2024-03-06T11:33:42;20.10;;;15.13;;
27265;SDS011;14766;51.380;13.762;2024-03-06T11:39:05;25.00;;;16.67;;
27265;SDS011;14766;51.380;13.762;2024-03-06T11:44:15;24.20;;;17.10;;
27265;SDS011;14766;51.380;13.762;2024-03-06T11:49:17;21.90;;;16.17;;
27265;SDS011;14766;51.380;13.762;2024-03-06T11:51:51;23.20;;;16.63;;
27265;SDS011;14766;51.380;13.762;2024-03-06T11:54:19;24.83;;;15.73;;
27265;SDS011;14766;51.380;13.762;2024-03-06T11:56:50;21.55;;;15.75;;
27265;SDS011;14766;51.380;13.762;2024-03-06T11:59:21;24.80;;;17.58;;
27265;SDS011;14766;51.380;13.762;2024-03-06T12:01:56;23.90;;;17.45;;
27265;SDS011;14766;51.380;13.762;2024-03-06T12:04:34;23.63;;;17.02;;
27265;SDS011;14766;51.380;13.762;2024-03-06T12:07:06;24.20;;;16.98;;
27265;SDS011;14766;51.380;13.762;2024-03-06T12:09:35;19.33;;;13.57;;
27265;SDS011;14766;51.380;13.762;2024-03-06T12:12:09;19.70;;;14.00;;
27265;SDS011;14766;51.380;13.762;2024-03-06T12:14:38;18.48;;;12.63;;
27265;SDS011;14766;51.380;13.762;2024-03-06T12:17:11;22.00;;;15.23;;
27265;SDS011;14766;51.380;13.762;2024-03-06T12:19:43;23.55;;;16.85;;
27265;SDS011;14766;51.380;13.762;2024-03-06T12:22:12;20.92;;;15.30;;
27265;SDS011;14766;51.380;13.762;2024-03-06T12:24:39;24.50;;;15.85;;
27265;SDS011;14766;51.380;13.762;2024-03-06T12:27:07;20.13;;;14.30;;
27265;SDS011;14766;51.380;13.762;2024-03-06T12:29:35;27.38;;;18.73;;
27265;SDS011;14766;51.380;13.762;2024-03-06T12:32:04;21.50;;;15.95;;
27265;SDS011;14766;51.380;13.762;2024-03-06T12:34:44;22.52;;;15.75;;
27265;SDS011;14766;51.380;13.762;2024-03-06T12:37:11;23.80;;;15.45;;
27265;SDS011;14766;51.380;13.762;2024-03-06T12:39:38;25.98;;;17.60;;
27265;SDS011;14766;51.380;13.762;2024-03-06T12:42:09;22.50;;;15.50;;
27265;SDS011;14766;51.380;13.762;2024-03-06T12:44:38;22.33;;;15.02;;
27265;SDS011;14766;51.380;13.762;2024-03-06T12:47:07;21.80;;;15.50;;
27265;SDS011;14766;51.380;13.762;2024-03-06T12:49:35;23.38;;;16.02;;
27265;SDS011;14766;51.380;13.762;2024-03-06T12:52:02;20.10;;;14.18;;
27265;SDS011;14766;51.380;13.762;2024-03-06T12:54:31;19.90;;;14.52;;
27265;SDS011;14766;51.380;13.762;2024-03-06T12:56:59;19.58;;;13.35;;
27265;SDS011;14766;51.380;13.762;2024-03-06T12:59:27;20.67;;;14.32;;
27265;SDS011;14766;51.380;13.762;2024-03-06T13:01:54;19.42;;;14.48;;
27265;SDS011;14766;51.380;13.762;2024-03-06T13:04:21;18.48;;;12.70;;
27265;SDS011;14766;51.380;13.762;2024-03-06T13:06:48;22.02;;;14.93;;
27265;SDS011;14766;51.380;13.762;2024-03-06T13:09:15;19.15;;;12.93;;
27265;SDS011;14766;51.380;13.762;2024-03-06T13:11:42;19.55;;;13.48;;
27265;SDS011;14766;51.380;13.762;2024-03-06T13:14:10;17.85;;;12.18;;
27265;SDS011;14766;51.380;13.762;2024-03-06T13:16:39;18.55;;;11.70;;
27265;SDS011;14766;51.380;13.762;2024-03-06T13:19:06;17.48;;;11.73;;
27265;SDS011;14766;51.380;13.762;2024-03-06T13:21:35;15.50;;;11.30;;
27265;SDS011;14766;51.380;13.762;2024-03-06T13:24:02;17.38;;;11.95;;
27265;SDS011;14766;51.380;13.762;2024-03-06T13:26:29;18.58;;;13.25;;
27265;SDS011;14766;51.380;13.762;2024-03-06T13:28:57;19.13;;;13.35;;
27265;SDS011;14766;51.380;13.762;2024-03-06T13:31:27;17.65;;;12.52;;
27265;SDS011;14766;51.380;13.762;2024-03-06T13:33:54;16.83;;;12.38;;
27265;SDS011;14766;51.380;13.762;2024-03-06T13:36:21;16.27;;;11.07;;
27265;SDS011;14766;51.380;13.762;2024-03-06T13:38:49;16.63;;;10.88;;
27265;SDS011;14766;51.380;13.762;2024-03-06T13:41:16;18.55;;;11.90;;
27265;SDS011;14766;51.380;13.762;2024-03-06T13:43:44;17.65;;;11.63;;
27265;SDS011;14766;51.380;13.762;2024-03-06T13:46:12;17.55;;;11.35;;
27265;SDS011;14766;51.380;13.762;2024-03-06T13:48:39;16.20;;;10.98;;
27265;SDS011;14766;51.380;13.762;2024-03-06T13:51:06;15.82;;;9.80;;
27265;SDS011;14766;51.380;13.762;2024-03-06T13:53:34;13.27;;;10.07;;
27265;SDS011;14766;51.380;13.762;2024-03-06T13:56:01;15.73;;;10.57;;
27265;SDS011;14766;51.380;13.762;2024-03-06T13:58:29;15.10;;;10.73;;
27265;SDS011;14766;51.380;13.762;2024-03-06T14:00:57;16.02;;;10.35;;
27265;SDS011;14766;51.380;13.762;2024-03-06T14:03:26;16.80;;;11.05;;
27265;SDS011;14766;51.380;13.762;2024-03-06T14:05:53;17.27;;;11.13;;
27265;SDS011;14766;51.380;13.762;2024-03-06T14:08:21;19.05;;;11.77;;
27265;SDS011;14766;51.380;13.762;2024-03-06T14:10:49;19.77;;;14.10;;
27265;SDS011;14766;51.380;13.762;2024-03-06T14:13:16;16.55;;;11.52;;
27265;SDS011;14766;51.380;13.762;2024-03-06T14:15:44;16.70;;;13.10;;
27265;SDS011;14766;51.380;13.762;2024-03-06T14:18:11;20.98;;;13.75;;
27265;SDS011;14766;51.380;13.762;2024-03-06T14:20:39;16.52;;;11.15;;
27265;SDS011;14766;51.380;13.762;2024-03-06T14:23:08;13.75;;;10.70;;
27265;SDS011;14766;51.380;13.762;2024-03-06T14:25:36;13.57;;;10.32;;
27265;SDS011;14766;51.380;13.762;2024-03-06T14:28:05;14.35;;;10.38;;
27265;SDS011;14766;51.380;13.762;2024-03-06T14:30:32;14.23;;;11.10;;
27265;SDS011;14766;51.380;13.762;2024-03-06T14:33:01;15.02;;;11.15;;
27265;SDS011;14766;51.380;13.762;2024-03-06T14:35:32;13.30;;;10.27;;